Time,TemperatureF,DewpointF,PressureIn,WindDirection,WindDirectionDegrees,WindSpeedMPH,WindSpeedGustMPH,Humidity,HourlyPrecipIn,Conditions,Clouds,dailyrainin,SoftwareType,DateUTC
2017-11-21 00:08:00,48.8,45.4,30.18,ENE,64,2.0,2.0,88,0.00,,---,0.00,VWS V15.00,2017-11-21 05:08:00,
2017-11-21 00:13:00,48.9,45.8,30.19,NE,40,1.0,2.0,89,0.00,,---,0.00,VWS V15.00,2017-11-21 05:13:00,
2017-11-21 00:18:00,48.8,46.0,30.18,NNE,31,2.0,3.0,90,0.00,,---,0.00,VWS V15.00,2017-11-21 05:18:00,
2017-11-21 00:23:00,48.8,46.0,30.18,NNE,30,3.0,3.0,90,0.00,,---,0.00,VWS V15.00,2017-11-21 05:23:00,
2017-11-21 00:28:00,48.7,45.9,30.18,NNE,31,2.0,3.0,90,0.00,,---,0.00,VWS V15.00,2017-11-21 05:28:00,
2017-11-21 00:33:00,48.8,46.0,30.17,NE,34,1.0,2.0,90,0.00,,---,0.00,VWS V15.00,2017-11-21 05:33:00,
2017-11-21 00:43:00,48.5,45.7,30.17,ENE,59,2.0,3.0,90,0.00,,---,0.00,VWS V15.00,2017-11-21 05:43:00,
2017-11-21 00:53:00,48.6,45.8,30.17,ENE,64,3.0,4.0,90,0.00,,---,0.00,VWS V15.00,2017-11-21 05:53:00,
2017-11-21 00:58:00,48.7,45.9,30.17,ENE,64,3.0,3.0,90,0.00,,---,0.00,VWS V15.00,2017-11-21 05:58:00,
2017-11-21 01:03:00,48.7,45.6,30.17,NE,54,2.0,4.0,89,0.00,,---,0.00,VWS V15.00,2017-11-21 06:03:00,
2017-11-21 01:18:00,48.8,45.7,30.16,ENE,58,1.0,3.0,89,0.00,,---,0.00,VWS V15.00,2017-11-21 06:18:00,
2017-11-21 01:24:00,48.9,46.1,30.16,NE,55,2.0,3.0,90,0.00,,---,0.00,VWS V15.00,2017-11-21 06:24:00,
2017-11-21 01:29:00,48.9,46.1,30.16,NE,55,2.0,3.0,90,0.00,,---,0.00,VWS V15.00,2017-11-21 06:29:00,
2017-11-21 01:34:00,49.0,46.2,30.16,ENE,63,2.0,4.0,90,0.00,,---,0.00,VWS V15.00,2017-11-21 06:34:00,
2017-11-21 01:39:00,49.2,46.4,30.16,ENE,61,2.0,3.0,90,0.00,,---,0.00,VWS V15.00,2017-11-21 06:39:00,
2017-11-21 01:41:00,49.2,46.4,30.16,ENE,61,2.0,3.0,90,0.00,,---,0.00,VWS V15.00,2017-11-21 06:41:00,
2017-11-21 01:46:00,49.3,46.5,30.16,ENE,73,3.0,3.0,90,0.00,,---,0.00,VWS V15.00,2017-11-21 06:46:00,
2017-11-21 01:51:00,49.4,46.6,30.16,ENE,71,3.0,3.0,90,0.00,,---,0.00,VWS V15.00,2017-11-21 06:51:00,
2017-11-21 01:56:00,49.6,46.8,30.16,ENE,63,2.0,5.0,90,0.00,,---,0.00,VWS V15.00,2017-11-21 06:56:00,
2017-11-21 02:01:00,49.9,46.8,30.16,NE,43,6.0,6.0,89,0.00,,---,0.00,VWS V15.00,2017-11-21 07:01:00,
2017-11-21 02:06:00,50.1,47.0,30.16,NE,54,3.0,4.0,89,0.00,,---,0.00,VWS V15.00,2017-11-21 07:06:00,
2017-11-21 02:16:00,50.2,47.1,30.16,ENE,57,2.0,3.0,89,0.00,,---,0.00,VWS V15.00,2017-11-21 07:16:00,
2017-11-21 02:26:00,50.0,46.9,30.15,ENE,61,3.0,4.0,89,0.00,,---,0.00,VWS V15.00,2017-11-21 07:26:00,
2017-11-21 02:31:00,50.0,46.9,30.15,ENE,63,3.0,5.0,89,0.00,,---,0.00,VWS V15.00,2017-11-21 07:31:00,
2017-11-21 02:36:00,50.0,46.9,30.15,ENE,70,3.0,4.0,89,0.00,,---,0.00,VWS V15.00,2017-11-21 07:36:00,
2017-11-21 02:41:00,50.0,46.9,30.15,ENE,57,3.0,4.0,89,0.00,,---,0.00,VWS V15.00,2017-11-21 07:41:00,
2017-11-21 02:46:00,50.0,47.2,30.15,ENE,67,3.0,3.0,90,0.00,,---,0.00,VWS V15.00,2017-11-21 07:46:00,
2017-11-21 02:51:00,50.1,47.3,30.15,NE,53,3.0,3.0,90,0.00,,---,0.00,VWS V15.00,2017-11-21 07:51:00,
2017-11-21 02:56:00,50.3,47.5,30.15,NE,44,1.0,3.0,90,0.00,,---,0.00,VWS V15.00,2017-11-21 07:56:00,
2017-11-21 03:01:00,50.5,48.0,30.15,NE,44,1.0,2.0,91,0.00,,---,0.00,VWS V15.00,2017-11-21 08:01:00,
2017-11-21 03:06:00,50.5,48.0,30.15,NE,44,1.0,2.0,91,0.00,,---,0.00,VWS V15.00,2017-11-21 08:06:00,
2017-11-21 03:11:00,50.7,48.2,30.15,ENE,58,2.0,4.0,91,0.00,,---,0.00,VWS V15.00,2017-11-21 08:11:00,
2017-11-21 03:21:00,51.0,48.2,30.15,ENE,59,1.0,3.0,90,0.00,,---,0.00,VWS V15.00,2017-11-21 08:21:00,
2017-11-21 03:31:00,51.3,48.5,30.15,ENE,77,3.0,4.0,90,0.00,,---,0.00,VWS V15.00,2017-11-21 08:31:00,
2017-11-21 03:36:00,51.5,48.7,30.15,ENE,77,4.0,4.0,90,0.00,,---,0.00,VWS V15.00,2017-11-21 08:36:00,
2017-11-21 03:46:00,51.6,48.8,30.15,ENE,59,3.0,5.0,90,0.00,,---,0.00,VWS V15.00,2017-11-21 08:46:00,
2017-11-21 03:51:00,51.6,48.5,30.15,ENE,73,3.0,5.0,89,0.00,,---,0.00,VWS V15.00,2017-11-21 08:51:00,
2017-11-21 03:52:00,51.6,48.5,30.14,ENE,72,3.0,5.0,89,0.00,,---,0.00,VWS V15.00,2017-11-21 08:52:00,
2017-11-21 04:02:00,51.5,48.4,30.14,NE,51,2.0,4.0,89,0.00,,---,0.00,VWS V15.00,2017-11-21 09:02:00,
2017-11-21 04:13:00,51.5,48.7,30.14,ENE,61,4.0,4.0,90,0.00,,---,0.00,VWS V15.00,2017-11-21 09:13:00,
2017-11-21 04:18:00,51.6,48.8,30.14,ENE,61,0.0,2.0,90,0.00,,---,0.00,VWS V15.00,2017-11-21 09:18:00,
2017-11-21 04:23:00,51.5,48.7,30.14,ENE,59,2.0,2.0,90,0.00,,---,0.00,VWS V15.00,2017-11-21 09:23:00,
2017-11-21 04:28:00,51.4,48.6,30.14,NNE,30,3.0,3.0,90,0.00,,---,0.00,VWS V15.00,2017-11-21 09:28:00,
2017-11-21 04:43:00,51.4,48.6,30.14,NNE,32,1.0,2.0,90,0.00,,---,0.00,VWS V15.00,2017-11-21 09:43:00,
2017-11-21 05:08:00,51.5,49.0,30.14,NE,52,3.0,3.0,91,0.00,,---,0.00,VWS V15.00,2017-11-21 10:08:00,
2017-11-21 05:13:00,51.6,49.1,30.14,ENE,58,2.0,4.0,91,0.00,,---,0.00,VWS V15.00,2017-11-21 10:13:00,
2017-11-21 05:23:00,51.5,48.7,30.14,ENE,66,4.0,4.0,90,0.00,,---,0.00,VWS V15.00,2017-11-21 10:23:00,
2017-11-21 05:38:00,51.4,48.6,30.14,ENE,75,2.0,5.0,90,0.00,,---,0.00,VWS V15.00,2017-11-21 10:38:00,
2017-11-21 05:43:00,51.5,48.7,30.14,NE,43,4.0,6.0,90,0.00,,---,0.00,VWS V15.00,2017-11-21 10:43:00,
2017-11-21 05:48:00,51.4,48.6,30.14,ENE,60,2.0,5.0,90,0.00,,---,0.00,VWS V15.00,2017-11-21 10:48:00,
2017-11-21 05:53:00,51.4,48.6,30.14,ENE,57,3.0,5.0,90,0.00,,---,0.00,VWS V15.00,2017-11-21 10:53:00,
2017-11-21 05:58:00,51.4,48.6,30.14,NE,42,4.0,6.0,90,0.00,,---,0.00,VWS V15.00,2017-11-21 10:58:00,
2017-11-21 06:00:00,51.5,48.7,30.14,ENE,70,3.0,6.0,90,0.00,,---,0.00,VWS V15.00,2017-11-21 11:00:00,
2017-11-21 06:05:00,51.5,48.7,30.14,NE,51,2.0,4.0,90,0.00,,---,0.00,VWS V15.00,2017-11-21 11:05:00,
2017-11-21 06:10:00,51.7,49.2,30.14,ENE,60,2.0,5.0,91,0.00,,---,0.00,VWS V15.00,2017-11-21 11:10:00,
2017-11-21 06:15:00,51.8,49.0,30.15,ENE,73,4.0,5.0,90,0.00,,---,0.00,VWS V15.00,2017-11-21 11:15:00,
2017-11-21 06:20:00,52.0,49.2,30.15,ENE,76,3.0,5.0,90,0.00,,---,0.00,VWS V15.00,2017-11-21 11:20:00,
2017-11-21 06:25:00,52.1,49.3,30.15,ENE,61,2.0,4.0,90,0.00,,---,0.00,VWS V15.00,2017-11-21 11:25:00,
2017-11-21 06:30:00,52.2,49.4,30.15,NE,50,3.0,3.0,90,0.00,,---,0.00,VWS V15.00,2017-11-21 11:30:00,
2017-11-21 06:35:00,52.4,49.6,30.15,NNE,33,4.0,5.0,90,0.00,,---,0.00,VWS V15.00,2017-11-21 11:35:00,
2017-11-21 06:40:00,52.4,49.6,30.15,ENE,57,3.0,4.0,90,0.00,,---,0.00,VWS V15.00,2017-11-21 11:40:00,
2017-11-21 06:45:00,52.3,49.2,30.14,NE,46,1.0,3.0,89,0.00,,---,0.00,VWS V15.00,2017-11-21 11:45:00,
2017-11-21 06:50:00,52.1,49.0,30.14,NE,53,4.0,5.0,89,0.00,,---,0.00,VWS V15.00,2017-11-21 11:50:00,
2017-11-21 06:55:00,52.0,48.9,30.14,NE,48,4.0,4.0,89,0.00,,---,0.00,VWS V15.00,2017-11-21 11:55:00,
2017-11-21 07:00:00,51.9,49.1,30.14,NE,53,3.0,4.0,90,0.00,,---,0.00,VWS V15.00,2017-11-21 12:00:00,
2017-11-21 07:05:00,51.8,49.0,30.14,NE,45,3.0,4.0,90,0.00,,---,0.00,VWS V15.00,2017-11-21 12:05:00,
2017-11-21 07:10:00,51.9,49.1,30.14,ENE,63,5.0,5.0,90,0.00,,---,0.00,VWS V15.00,2017-11-21 12:10:00,
2017-11-21 07:15:00,52.0,49.2,30.14,ENE,60,3.0,5.0,90,0.00,,---,0.00,VWS V15.00,2017-11-21 12:15:00,
2017-11-21 07:24:00,52.2,49.4,30.14,ENE,72,4.0,5.0,90,0.00,,---,0.00,VWS V15.00,2017-11-21 12:24:00,
2017-11-21 07:34:00,52.6,49.8,30.14,NE,52,4.0,5.0,90,0.00,,---,0.00,VWS V15.00,2017-11-21 12:34:00,
2017-11-21 07:44:00,53.3,50.5,30.14,ENE,64,1.0,3.0,90,0.00,,---,0.00,VWS V15.00,2017-11-21 12:44:00,
2017-11-21 07:54:00,54.1,50.9,30.14,ENE,65,3.0,4.0,89,0.00,,---,0.00,VWS V15.00,2017-11-21 12:54:00,
2017-11-21 07:59:00,54.5,51.3,30.14,ENE,67,3.0,4.0,89,0.00,,---,0.00,VWS V15.00,2017-11-21 12:59:00,
2017-11-21 08:04:00,54.9,51.4,30.14,ENE,61,4.0,6.0,88,0.00,,---,0.00,VWS V15.00,2017-11-21 13:04:00,
2017-11-21 08:14:00,55.4,51.9,30.14,ENE,57,4.0,5.0,88,0.00,,---,0.00,VWS V15.00,2017-11-21 13:14:00,
2017-11-21 08:34:00,56.8,52.7,30.14,ENE,78,4.0,5.0,86,0.00,,---,0.00,VWS V15.00,2017-11-21 13:34:00,
2017-11-21 08:39:00,57.3,53.2,30.14,East,88,8.0,8.0,86,0.00,,---,0.00,VWS V15.00,2017-11-21 13:39:00,
2017-11-21 08:44:00,58.1,53.6,30.14,ENE,73,4.0,7.0,85,0.00,,---,0.00,VWS V15.00,2017-11-21 13:44:00,
2017-11-21 08:49:00,58.7,53.9,30.14,East,88,5.0,6.0,84,0.00,,---,0.00,VWS V15.00,2017-11-21 13:49:00,
2017-11-21 08:54:00,58.9,53.8,30.14,ENE,70,5.0,5.0,83,0.00,,---,0.00,VWS V15.00,2017-11-21 13:54:00,
2017-11-21 09:04:00,59.5,54.3,30.14,ENE,63,6.0,10.0,83,0.00,,---,0.00,VWS V15.00,2017-11-21 14:04:00,
2017-11-21 09:09:00,59.9,54.4,30.14,NNE,25,6.0,9.0,82,0.00,,---,0.00,VWS V15.00,2017-11-21 14:09:00,
2017-11-21 09:14:00,60.2,54.7,30.14,ENE,74,5.0,7.0,82,0.00,,---,0.00,VWS V15.00,2017-11-21 14:14:00,
2017-11-21 09:19:00,60.5,54.7,30.13,NE,55,9.0,10.0,81,0.00,,---,0.00,VWS V15.00,2017-11-21 14:19:00,
2017-11-21 09:24:00,60.6,54.8,30.14,East,82,8.0,9.0,81,0.00,,---,0.00,VWS V15.00,2017-11-21 14:24:00,
2017-11-21 09:29:00,60.7,54.8,30.14,East,97,6.0,10.0,81,0.00,,---,0.00,VWS V15.00,2017-11-21 14:29:00,
2017-11-21 09:34:00,60.9,55.0,30.14,ENE,63,5.0,6.0,81,0.00,,---,0.00,VWS V15.00,2017-11-21 14:34:00,
2017-11-21 09:39:00,61.2,55.3,30.14,East,90,7.0,10.0,81,0.00,,---,0.00,VWS V15.00,2017-11-21 14:39:00,